createdAt,value
2022-11-01T00:00:21.091Z,1
2022-11-01T00:05:32.942Z,1
2022-11-01T00:10:44.981Z,1
2022-11-01T00:15:57.164Z,1
2022-11-01T00:21:09.038Z,1
2022-11-01T00:26:21.175Z,1
2022-11-01T00:31:32.982Z,1
2022-11-01T00:36:45.012Z,1
2022-11-01T00:41:57.225Z,0
2022-11-01T00:47:09.226Z,1
2022-11-01T00:52:21.176Z,1
2022-11-01T00:57:33.109Z,0
2022-11-01T01:02:45.018Z,1
2022-11-01T01:07:57.112Z,1
2022-11-01T01:13:09.040Z,1
2022-11-01T01:18:20.957Z,0
2022-11-01T01:23:32.765Z,0
2022-11-01T01:28:46.082Z,0
2022-11-01T01:39:10.128Z,1
2022-11-01T01:44:21.799Z,1
2022-11-01T01:49:38.658Z,1
2022-11-01T01:54:52.404Z,1
2022-11-01T02:00:04.332Z,1
2022-11-01T02:05:16.215Z,1
2022-11-01T02:10:28.101Z,1
2022-11-01T02:15:40.880Z,1
2022-11-01T02:20:52.411Z,1
2022-11-01T02:26:04.264Z,1
2022-11-01T02:31:16.134Z,2
2022-11-01T02:36:27.857Z,2
2022-11-01T02:41:39.529Z,2
2022-11-01T02:46:51.414Z,2
2022-11-01T02:52:03.279Z,2
2022-11-01T02:57:15.039Z,2
2022-11-01T03:02:26.959Z,2
2022-11-01T03:07:38.684Z,2
2022-11-01T03:12:50.460Z,1
2022-11-01T03:18:02.314Z,1
2022-11-01T03:23:14.091Z,1
2022-11-01T03:28:25.731Z,1
2022-11-01T03:33:37.544Z,2
2022-11-01T03:38:49.311Z,2
2022-11-01T03:44:01.114Z,1
2022-11-01T03:49:12.994Z,1
2022-11-01T03:54:24.672Z,1
2022-11-01T03:59:36.511Z,1
2022-11-01T04:04:48.435Z,1
2022-11-01T04:10:00.283Z,1
2022-11-01T04:15:12.001Z,1
2022-11-01T04:20:23.705Z,1
2022-11-01T04:25:35.451Z,1
2022-11-01T04:30:47.262Z,2
2022-11-01T04:35:59.317Z,2
2022-11-01T04:41:11.123Z,2
2022-11-01T04:46:22.701Z,2
2022-11-01T04:51:34.967Z,2
2022-11-01T04:56:46.579Z,2
2022-11-01T05:01:58.829Z,2
2022-11-01T05:07:10.555Z,2
2022-11-01T05:12:22.229Z,2
2022-11-01T05:17:34.081Z,2
2022-11-01T05:22:45.995Z,2
2022-11-01T05:27:58.142Z,2
2022-11-01T05:33:09.950Z,2
2022-11-01T05:38:21.736Z,2
2022-11-01T05:43:33.418Z,2
2022-11-01T05:48:45.091Z,3
2022-11-01T05:53:56.916Z,3
2022-11-01T05:59:08.510Z,2
2022-11-01T06:04:20.264Z,2
2022-11-01T06:09:32.183Z,2
2022-11-01T06:14:44.030Z,3
2022-11-01T06:19:55.786Z,3
2022-11-01T06:25:07.600Z,3
2022-11-01T06:30:19.281Z,3
2022-11-01T06:35:30.932Z,2
2022-11-01T06:40:42.754Z,2
2022-11-01T06:45:54.576Z,3
2022-11-01T06:51:06.194Z,3
2022-11-01T06:56:18.020Z,2
2022-11-01T07:01:30.573Z,2
2022-11-01T07:06:42.332Z,1
2022-11-01T07:11:54.142Z,1
2022-11-01T07:17:05.805Z,2
2022-11-01T07:22:17.491Z,1
2022-11-01T07:27:29.313Z,1
2022-11-01T07:32:40.973Z,1
2022-11-01T07:37:52.750Z,0
2022-11-01T07:43:04.827Z,0
2022-11-01T07:48:16.346Z,0
2022-11-01T07:53:28.324Z,0
2022-11-01T07:58:40.353Z,0
2022-11-01T08:03:51.942Z,0
2022-11-01T08:09:03.789Z,0
2022-11-01T08:14:15.937Z,0
2022-11-01T08:19:27.763Z,0
2022-11-01T08:24:39.772Z,0
2022-11-01T08:29:51.801Z,0
2022-11-01T08:35:03.581Z,0
2022-11-01T08:40:15.624Z,0
2022-11-01T08:45:27.818Z,0
2022-11-01T08:50:39.670Z,0
2022-11-01T08:55:51.809Z,0
2022-11-01T09:01:04.204Z,0
2022-11-01T09:06:16.190Z,0
2022-11-01T09:11:28.118Z,0
2022-11-01T09:16:40.476Z,0
2022-11-01T09:21:52.495Z,0
2022-11-01T09:27:04.558Z,0
2022-11-01T09:32:16.771Z,0
2022-11-01T09:37:28.860Z,1
2022-11-01T09:42:41.101Z,3
2022-11-01T09:47:53.402Z,3
2022-11-01T09:53:05.463Z,4
2022-11-01T09:58:17.537Z,5
2022-11-01T10:03:29.522Z,5
2022-11-01T10:08:41.341Z,5
2022-11-01T10:13:53.426Z,6
2022-11-01T10:19:05.543Z,5
2022-11-01T10:24:17.638Z,7
2022-11-01T10:29:30.037Z,9
2022-11-01T10:34:43.014Z,11
2022-11-01T10:40:09.914Z,12
2022-11-01T10:45:19.947Z,12
2022-11-01T10:50:32.502Z,14
2022-11-01T10:55:44.997Z,16
2022-11-01T11:00:57.683Z,18
2022-11-01T11:06:20.072Z,16
2022-11-01T11:11:33.970Z,17
2022-11-01T11:16:45.290Z,14
2022-11-01T11:21:57.624Z,16
2022-11-01T11:27:10.076Z,20
2022-11-01T11:32:22.764Z,21
2022-11-01T11:37:36.385Z,28
2022-11-01T11:42:49.221Z,28
2022-11-01T11:53:11.294Z,26
2022-11-01T11:58:24.492Z,26
2022-11-01T12:03:36.864Z,26
2022-11-01T12:13:58.014Z,24
2022-11-01T12:19:09.781Z,21
2022-11-01T12:24:22.446Z,21
2022-11-01T12:29:35.298Z,22
2022-11-01T12:34:47.645Z,23
2022-11-01T12:40:00.172Z,25
2022-11-01T12:45:12.688Z,24
2022-11-01T12:50:24.989Z,27
2022-11-01T12:55:37.555Z,27
2022-11-01T13:00:50.144Z,30
2022-11-01T13:06:02.345Z,28
2022-11-01T13:16:24.185Z,25
2022-11-01T13:21:36.446Z,27
2022-11-01T13:26:53.816Z,25
2022-11-01T13:32:08.720Z,26
2022-11-01T13:42:31.066Z,26
2022-11-01T13:52:55.766Z,24
2022-11-01T13:58:07.920Z,23
2022-11-01T14:03:20.231Z,22
2022-11-01T14:08:32.499Z,19
2022-11-01T14:13:44.926Z,19
2022-11-01T14:18:57.224Z,18
2022-11-01T14:29:21.254Z,17
2022-11-01T14:34:33.423Z,17
2022-11-01T14:39:45.473Z,19
2022-11-01T14:44:57.612Z,17
2022-11-01T14:50:14.333Z,16
2022-11-01T14:55:29.874Z,13
2022-11-01T15:00:41.984Z,14
2022-11-01T15:05:54.067Z,14
2022-11-01T15:11:20.174Z,13
2022-11-01T15:16:32.076Z,11
2022-11-01T15:21:48.364Z,11
2022-11-01T15:27:00.794Z,10
2022-11-01T15:32:12.764Z,9
2022-11-01T15:37:24.830Z,9
2022-11-01T15:42:36.969Z,8
2022-11-01T15:47:48.787Z,8
2022-11-01T15:53:05.428Z,9
2022-11-01T15:58:18.273Z,8
2022-11-01T16:03:30.348Z,6
2022-11-01T16:08:42.454Z,6
2022-11-01T16:13:54.618Z,6
2022-11-01T16:19:06.698Z,6
2022-11-01T16:24:18.716Z,5
2022-11-01T16:29:30.682Z,5
2022-11-01T16:34:42.576Z,4
2022-11-01T16:39:54.491Z,3
2022-11-01T16:45:06.426Z,3
2022-11-01T16:50:18.372Z,3
2022-11-01T16:55:37.963Z,2
2022-11-01T17:00:51.702Z,2
2022-11-01T17:06:03.823Z,1
2022-11-01T17:11:16.103Z,2
2022-11-01T17:16:28.330Z,1
2022-11-01T17:21:40.542Z,1
2022-11-01T17:26:52.753Z,1
2022-11-01T17:32:04.762Z,1
2022-11-01T17:37:16.815Z,1
2022-11-01T17:42:28.895Z,1
2022-11-01T17:47:41.447Z,0
2022-11-01T17:52:53.422Z,0
2022-11-01T17:58:06.805Z,0
2022-11-01T18:03:18.620Z,0
2022-11-01T18:08:31.140Z,0
2022-11-01T18:13:43.504Z,0
2022-11-01T18:18:55.545Z,0
2022-11-01T18:24:22.976Z,0
2022-11-01T18:29:40.839Z,0
2022-11-01T18:34:50.822Z,0
2022-11-01T18:40:02.779Z,0
2022-11-01T18:45:15.301Z,0
2022-11-01T18:50:27.316Z,0
2022-11-01T18:55:39.628Z,0
2022-11-01T19:00:52.342Z,0
2022-11-01T19:06:04.277Z,0
2022-11-01T19:11:16.538Z,0
2022-11-01T19:16:28.771Z,0
2022-11-01T19:21:40.855Z,0
2022-11-01T19:26:53.067Z,0
2022-11-01T19:32:05.169Z,0
2022-11-01T19:37:17.126Z,0
2022-11-01T19:42:32.428Z,0
2022-11-01T19:47:43.921Z,0
2022-11-01T19:52:56.119Z,0
2022-11-01T19:58:08.216Z,0
2022-11-01T20:03:23.999Z,0
2022-11-01T20:08:37.846Z,0
2022-11-01T20:13:50.149Z,0
2022-11-01T20:19:02.507Z,0
2022-11-01T20:24:14.957Z,0
2022-11-01T20:34:54.991Z,0
2022-11-01T20:40:06.800Z,0
2022-11-01T20:45:19.027Z,0
2022-11-01T20:50:30.943Z,0
2022-11-01T20:55:42.866Z,0
2022-11-01T21:00:55.926Z,0
2022-11-01T21:06:07.781Z,0
2022-11-01T21:11:20.635Z,0
2022-11-01T21:16:32.386Z,0
2022-11-01T21:21:48.088Z,0
2022-11-01T21:27:01.136Z,0
2022-11-01T21:32:16.027Z,0
2022-11-01T21:37:27.592Z,0
2022-11-01T21:42:39.566Z,0
2022-11-01T21:47:51.818Z,0
2022-11-01T21:53:06.047Z,0
2022-11-01T21:58:17.996Z,0
2022-11-01T22:03:29.916Z,0
2022-11-01T22:08:42.060Z,0
2022-11-01T22:13:54.027Z,0
2022-11-01T22:19:05.976Z,0
2022-11-01T22:24:18.064Z,0
2022-11-01T22:29:30.181Z,0
2022-11-01T22:34:41.960Z,0
2022-11-01T22:39:54.894Z,0
2022-11-01T22:45:06.580Z,0
2022-11-01T22:50:18.500Z,0
2022-11-01T22:55:30.455Z,0
2022-11-01T23:00:42.440Z,0
2022-11-01T23:05:54.482Z,0
2022-11-01T23:11:06.445Z,0
2022-11-01T23:16:18.200Z,0
2022-11-01T23:21:30.304Z,0
2022-11-01T23:26:42.114Z,0
2022-11-01T23:31:53.971Z,0
2022-11-01T23:37:05.951Z,0
2022-11-01T23:42:18.033Z,0
2022-11-01T23:47:29.990Z,0
2022-11-01T23:52:42.000Z,0
2022-11-01T23:57:54.073Z,0
